sensor_id;sensor_type;location;lat;lon;timestamp;pressure;altitude;pressure_sealevel;temperature
14023;BMP180;7086;48.116;11.580;2022-12-16T01:19:40;93634.00;;;5.60
14023;BMP180;7086;48.116;11.580;2022-12-16T01:23:30;93681.00;;;5.50
14023;BMP180;7086;48.116;11.580;2022-12-16T01:26:33;93628.00;;;5.60
14023;BMP180;7086;48.116;11.580;2022-12-16T01:56:16;93669.00;;;5.40
14023;BMP180;7086;48.116;11.580;2022-12-16T02:00:06;93600.00;;;5.50
14023;BMP180;7086;48.116;11.580;2022-12-16T03:48:24;93652.00;;;5.40
14023;BMP180;7086;48.116;11.580;2022-12-16T03:51:01;93794.00;;;5.40
14023;BMP180;7086;48.116;11.580;2022-12-16T03:53:29;93753.00;;;5.20
14023;BMP180;7086;48.116;11.580;2022-12-16T03:55:56;93791.00;;;5.50
14023;BMP180;7086;48.116;11.580;2022-12-16T03:58:24;93788.00;;;5.50
14023;BMP180;7086;48.116;11.580;2022-12-16T04:00:51;93842.00;;;5.50
14023;BMP180;7086;48.116;11.580;2022-12-16T04:03:20;93827.00;;;5.50
14023;BMP180;7086;48.116;11.580;2022-12-16T04:05:47;93753.00;;;5.50
14023;BMP180;7086;48.116;11.580;2022-12-16T04:08:18;93855.00;;;5.40
14023;BMP180;7086;48.116;11.580;2022-12-16T04:10:50;93748.00;;;5.50
14023;BMP180;7086;48.116;11.580;2022-12-16T04:13:35;93813.00;;;5.50
14023;BMP180;7086;48.116;11.580;2022-12-16T04:16:20;93821.00;;;5.50
14023;BMP180;7086;48.116;11.580;2022-12-16T04:19:17;93846.00;;;5.50
14023;BMP180;7086;48.116;11.580;2022-12-16T04:22:02;93849.00;;;5.40
14023;BMP180;7086;48.116;11.580;2022-12-16T04:24:47;93881.00;;;5.40
14023;BMP180;7086;48.116;11.580;2022-12-16T04:27:14;93871.00;;;5.40
14023;BMP180;7086;48.116;11.580;2022-12-16T04:29:50;93827.00;;;5.10
14023;BMP180;7086;48.116;11.580;2022-12-16T04:32:35;93822.00;;;5.40
14023;BMP180;7086;48.116;11.580;2022-12-16T04:35:18;93763.00;;;5.40
14023;BMP180;7086;48.116;11.580;2022-12-16T04:38:04;93872.00;;;5.40
14023;BMP180;7086;48.116;11.580;2022-12-16T04:40:49;93852.00;;;5.40
14023;BMP180;7086;48.116;11.580;2022-12-16T04:43:33;93857.00;;;5.20
14023;BMP180;7086;48.116;11.580;2022-12-16T04:46:18;93858.00;;;5.20
14023;BMP180;7086;48.116;11.580;2022-12-16T04:49:02;93903.00;;;5.00
14023;BMP180;7086;48.116;11.580;2022-12-16T04:51:48;93876.00;;;5.30
14023;BMP180;7086;48.116;11.580;2022-12-16T04:54:33;93841.00;;;5.30
14023;BMP180;7086;48.116;11.580;2022-12-16T04:57:18;93866.00;;;5.30
14023;BMP180;7086;48.116;11.580;2022-12-16T05:00:05;93903.00;;;5.30
14023;BMP180;7086;48.116;11.580;2022-12-16T05:02:50;93910.00;;;5.30
14023;BMP180;7086;48.116;11.580;2022-12-16T05:05:36;93896.00;;;5.30
14023;BMP180;7086;48.116;11.580;2022-12-16T05:11:53;93928.00;;;5.20
14023;BMP180;7086;48.116;11.580;2022-12-16T05:14:38;93933.00;;;5.20
14023;BMP180;7086;48.116;11.580;2022-12-16T05:17:23;93934.00;;;5.20
14023;BMP180;7086;48.116;11.580;2022-12-16T05:20:06;93941.00;;;5.20
14023;BMP180;7086;48.116;11.580;2022-12-16T05:22:54;93913.00;;;5.00
14023;BMP180;7086;48.116;11.580;2022-12-16T05:25:39;93909.00;;;4.90
14023;BMP180;7086;48.116;11.580;2022-12-16T05:35:42;93951.00;;;5.10
14023;BMP180;7086;48.116;11.580;2022-12-16T05:38:35;93950.00;;;5.10
14023;BMP180;7086;48.116;11.580;2022-12-16T05:41:20;93869.00;;;4.80
14023;BMP180;7086;48.116;11.580;2022-12-16T05:44:06;93873.00;;;4.90
14023;BMP180;7086;48.116;11.580;2022-12-16T05:46:52;93875.00;;;4.90
14023;BMP180;7086;48.116;11.580;2022-12-16T05:49:37;93970.00;;;5.10
14023;BMP180;7086;48.116;11.580;2022-12-16T05:59:39;93895.00;;;5.00
14023;BMP180;7086;48.116;11.580;2022-12-16T06:02:24;93951.00;;;4.90
14023;BMP180;7086;48.116;11.580;2022-12-16T06:05:10;93935.00;;;5.00
14023;BMP180;7086;48.116;11.580;2022-12-16T06:07:56;93991.00;;;5.00
14023;BMP180;7086;48.116;11.580;2022-12-16T06:10:41;93929.00;;;5.00
14023;BMP180;7086;48.116;11.580;2022-12-16T06:13:26;94009.00;;;5.00
14023;BMP180;7086;48.116;11.580;2022-12-16T06:16:19;93977.00;;;5.00
14023;BMP180;7086;48.116;11.580;2022-12-16T06:19:05;94005.00;;;5.00
14023;BMP180;7086;48.116;11.580;2022-12-16T06:21:50;93969.00;;;4.80
14023;BMP180;7086;48.116;11.580;2022-12-16T06:24:36;94013.00;;;5.10
14023;BMP180;7086;48.116;11.580;2022-12-16T06:27:21;94014.00;;;5.10
14023;BMP180;7086;48.116;11.580;2022-12-16T06:30:14;93956.00;;;5.10
14023;BMP180;7086;48.116;11.580;2022-12-16T06:40:17;94039.00;;;4.60
14023;BMP180;7086;48.116;11.580;2022-12-16T06:43:05;94047.00;;;4.90
14023;BMP180;7086;48.116;11.580;2022-12-16T06:45:50;93978.00;;;4.90
14023;BMP180;7086;48.116;11.580;2022-12-16T06:48:35;93950.00;;;4.90
14023;BMP180;7086;48.116;11.580;2022-12-16T06:51:24;94072.00;;;4.90
14023;BMP180;7086;48.116;11.580;2022-12-16T06:54:09;93966.00;;;4.40
14023;BMP180;7086;48.116;11.580;2022-12-16T17:44:35;94834.00;;;4.20
14023;BMP180;7086;48.116;11.580;2022-12-16T17:47:41;94854.00;;;4.10
14023;BMP180;7086;48.116;11.580;2022-12-16T17:50:28;94742.00;;;4.10
14023;BMP180;7086;48.116;11.580;2022-12-16T17:59:01;94851.00;;;4.10
14023;BMP180;7086;48.116;11.580;2022-12-16T19:51:12;95001.00;;;4.10
14023;BMP180;7086;48.116;11.580;2022-12-16T19:54:03;94985.00;;;4.10
14023;BMP180;7086;48.116;11.580;2022-12-16T19:56:48;94967.00;;;4.10
14023;BMP180;7086;48.116;11.580;2022-12-16T19:59:33;94880.00;;;4.00
14023;BMP180;7086;48.116;11.580;2022-12-16T20:02:18;95008.00;;;4.00
14023;BMP180;7086;48.116;11.580;2022-12-16T20:05:04;94996.00;;;4.10
14023;BMP180;7086;48.116;11.580;2022-12-16T20:07:52;95018.00;;;4.10
14023;BMP180;7086;48.116;11.580;2022-12-16T20:10:37;95031.00;;;4.10
14023;BMP180;7086;48.116;11.580;2022-12-16T20:13:22;94858.00;;;3.90
14023;BMP180;7086;48.116;11.580;2022-12-16T20:16:11;95002.00;;;4.10
14023;BMP180;7086;48.116;11.580;2022-12-16T20:19:22;94935.00;;;3.90
14023;BMP180;7086;48.116;11.580;2022-12-16T20:22:07;95022.00;;;4.00
14023;BMP180;7086;48.116;11.580;2022-12-16T20:25:17;95031.00;;;4.00
14023;BMP180;7086;48.116;11.580;2022-12-16T20:28:02;95034.00;;;4.00
14023;BMP180;7086;48.116;11.580;2022-12-16T20:30:53;94993.00;;;4.00
14023;BMP180;7086;48.116;11.580;2022-12-16T20:36:14;95048.00;;;4.00
14023;BMP180;7086;48.116;11.580;2022-12-16T20:39:00;95062.00;;;3.90
14023;BMP180;7086;48.116;11.580;2022-12-16T20:41:50;95069.00;;;4.00
14023;BMP180;7086;48.116;11.580;2022-12-16T20:44:47;95011.00;;;4.00
14023;BMP180;7086;48.116;11.580;2022-12-16T20:47:34;95082.00;;;4.00
14023;BMP180;7086;48.116;11.580;2022-12-16T20:50:19;95028.00;;;4.00
14023;BMP180;7086;48.116;11.580;2022-12-16T20:53:05;95064.00;;;3.90
14023;BMP180;7086;48.116;11.580;2022-12-16T20:55:49;94990.00;;;3.90
14023;BMP180;7086;48.116;11.580;2022-12-16T20:58:41;95077.00;;;3.90
14023;BMP180;7086;48.116;11.580;2022-12-16T21:01:27;95081.00;;;3.90
14023;BMP180;7086;48.116;11.580;2022-12-16T21:04:43;95046.00;;;3.70
14023;BMP180;7086;48.116;11.580;2022-12-16T21:07:46;95022.00;;;3.90
14023;BMP180;7086;48.116;11.580;2022-12-16T22:49:40;95225.00;;;3.40
14023;BMP180;7086;48.116;11.580;2022-12-16T22:52:25;95102.00;;;3.60
14023;BMP180;7086;48.116;11.580;2022-12-16T22:56:25;95122.00;;;3.80
14023;BMP180;7086;48.116;11.580;2022-12-16T23:39:57;95261.00;;;3.60
14023;BMP180;7086;48.116;11.580;2022-12-16T23:42:42;95159.00;;;3.60
14023;BMP180;7086;48.116;11.580;2022-12-16T23:45:27;95284.00;;;3.60
14023;BMP180;7086;48.116;11.580;2022-12-16T23:48:13;95243.00;;;3.00
14023;BMP180;7086;48.116;11.580;2022-12-16T23:52:01;95176.00;;;3.50
